createdAt,value
2023-04-30T00:01:12.321Z,6.63
2023-04-30T00:04:14.370Z,5.93
2023-04-30T00:07:16.242Z,4.53
2023-04-30T00:10:18.293Z,4.27
2023-04-30T00:13:20.259Z,3.03
2023-04-30T00:16:22.177Z,2.90
2023-04-30T00:19:24.190Z,5.73
2023-04-30T00:22:26.169Z,5.37
2023-04-30T00:25:28.027Z,3.50
2023-04-30T00:28:29.973Z,5.73
2023-04-30T00:31:31.929Z,4.27
2023-04-30T00:34:33.844Z,5.17
2023-04-30T00:37:36.033Z,3.33
2023-04-30T00:40:38.690Z,2.50
2023-04-30T00:43:40.645Z,4.00
2023-04-30T00:46:42.588Z,4.00
2023-04-30T00:49:44.485Z,4.13
2023-04-30T00:52:46.530Z,5.37
2023-04-30T00:55:49.032Z,3.00
2023-04-30T00:58:51.910Z,3.17
2023-04-30T01:01:54.308Z,3.07
2023-04-30T01:04:56.906Z,3.30
2023-04-30T01:07:58.778Z,3.73
2023-04-30T01:11:11.232Z,2.80
2023-04-30T01:14:21.412Z,2.60
2023-04-30T01:17:39.164Z,3.27
2023-04-30T01:20:47.869Z,6.60
2023-04-30T01:23:55.884Z,5.73
2023-04-30T01:27:30.571Z,3.47
2023-04-30T01:30:33.663Z,4.27
2023-04-30T01:33:35.558Z,7.97
2023-04-30T01:36:51.059Z,6.97
2023-04-30T01:40:10.166Z,4.23
2023-04-30T01:43:21.706Z,3.90
2023-04-30T01:46:29.889Z,5.03
2023-04-30T01:49:42.876Z,4.90
2023-04-30T01:53:06.727Z,5.13
2023-04-30T01:56:13.101Z,5.30
2023-04-30T01:59:15.261Z,4.97
2023-04-30T02:02:17.187Z,5.33
2023-04-30T02:05:19.552Z,4.53
2023-04-30T02:08:21.568Z,4.93
2023-04-30T02:11:26.448Z,9.07
2023-04-30T02:14:28.405Z,6.73
2023-04-30T02:17:30.639Z,5.87
2023-04-30T02:20:32.546Z,6.57
2023-04-30T02:23:34.538Z,8.43
2023-04-30T02:26:36.490Z,5.53
2023-04-30T02:29:38.483Z,3.87
2023-04-30T02:32:40.347Z,4.37
2023-04-30T02:35:43.107Z,5.33
2023-04-30T02:38:44.980Z,4.13
2023-04-30T02:41:47.046Z,3.27
2023-04-30T02:44:48.835Z,7.47
2023-04-30T02:47:50.754Z,6.87
2023-04-30T02:50:53.487Z,4.40
2023-04-30T02:53:55.764Z,3.67
2023-04-30T02:56:58.027Z,3.47
2023-04-30T02:59:59.959Z,4.70
2023-04-30T03:03:02.234Z,3.80
2023-04-30T03:06:04.907Z,3.60
2023-04-30T03:09:07.106Z,7.07
2023-04-30T03:12:09.039Z,5.03
2023-04-30T03:15:11.325Z,4.90
2023-04-30T03:18:13.382Z,4.90
2023-04-30T03:21:15.645Z,4.03
2023-04-30T03:24:17.489Z,6.03
2023-04-30T03:27:19.503Z,6.17
2023-04-30T03:30:25.087Z,3.90
2023-04-30T03:33:27.741Z,8.30
2023-04-30T03:36:29.542Z,4.67
2023-04-30T03:39:31.427Z,7.07
2023-04-30T03:42:33.316Z,6.87
2023-04-30T03:45:35.220Z,4.83
2023-04-30T03:48:37.361Z,6.20
2023-04-30T03:51:42.006Z,6.60
2023-04-30T03:54:44.142Z,4.90
2023-04-30T03:57:46.545Z,6.87
2023-04-30T04:00:48.762Z,7.17
2023-04-30T04:03:50.829Z,7.07
2023-04-30T04:06:52.782Z,5.80
2023-04-30T04:09:54.880Z,3.53
2023-04-30T04:12:57.631Z,6.30
2023-04-30T04:15:59.674Z,4.83
2023-04-30T04:19:01.611Z,9.13
2023-04-30T04:22:03.555Z,6.37
2023-04-30T04:25:05.690Z,6.70
2023-04-30T04:28:07.642Z,4.57
2023-04-30T04:31:09.518Z,6.87
2023-04-30T04:34:11.854Z,7.10
2023-04-30T04:37:13.773Z,6.87
2023-04-30T04:40:15.778Z,6.60
2023-04-30T04:43:17.804Z,6.00
2023-04-30T04:46:21.786Z,8.83
2023-04-30T04:49:24.158Z,7.87
2023-04-30T04:52:26.149Z,9.33
2023-04-30T04:55:28.049Z,6.53
2023-04-30T04:58:29.950Z,10.03
2023-04-30T05:01:31.953Z,8.77
2023-04-30T05:04:33.923Z,8.17
2023-04-30T05:07:35.836Z,7.67
2023-04-30T05:10:37.811Z,9.80
2023-04-30T05:13:39.673Z,6.90
2023-04-30T05:16:41.610Z,8.60
2023-04-30T05:19:43.511Z,7.03
2023-04-30T05:22:46.154Z,6.20
2023-04-30T05:25:52.522Z,9.77
2023-04-30T05:28:54.463Z,6.87
2023-04-30T05:31:56.600Z,9.93
2023-04-30T05:34:58.498Z,8.90
2023-04-30T05:38:00.361Z,10.73
2023-04-30T05:41:02.182Z,8.13
2023-04-30T05:44:05.305Z,8.97
2023-04-30T05:47:07.223Z,9.90
2023-04-30T05:50:10.207Z,7.87
2023-04-30T05:53:12.080Z,8.73
2023-04-30T05:56:14.056Z,8.03
2023-04-30T05:59:16.026Z,8.53
2023-04-30T06:02:17.934Z,6.00
2023-04-30T06:05:19.950Z,6.33
2023-04-30T06:08:22.100Z,6.50
2023-04-30T06:11:26.065Z,6.87
2023-04-30T06:14:28.022Z,7.40
2023-04-30T06:17:29.926Z,7.57
2023-04-30T06:20:31.880Z,7.53
2023-04-30T06:23:33.859Z,6.87
2023-04-30T06:26:37.241Z,5.87
2023-04-30T06:29:40.667Z,10.97
2023-04-30T06:32:43.007Z,6.03
2023-04-30T06:35:44.861Z,5.57
2023-04-30T06:38:47.657Z,6.70
2023-04-30T06:41:49.967Z,6.57
2023-04-30T06:44:52.541Z,5.87
2023-04-30T06:47:54.525Z,7.07
2023-04-30T06:50:57.942Z,9.67
2023-04-30T06:54:00.120Z,6.53
2023-04-30T06:57:02.121Z,6.23
2023-04-30T07:00:06.743Z,6.10
2023-04-30T07:03:08.845Z,10.53
2023-04-30T07:06:11.434Z,13.13
2023-04-30T07:09:15.272Z,9.70
2023-04-30T07:12:17.251Z,10.90
2023-04-30T07:15:19.427Z,6.70
2023-04-30T07:18:21.970Z,9.43
2023-04-30T07:21:25.666Z,5.83
2023-04-30T07:24:28.078Z,8.97
2023-04-30T07:27:30.005Z,9.27
2023-04-30T07:30:32.195Z,6.97
2023-04-30T07:33:34.136Z,6.83
2023-04-30T07:36:36.480Z,8.93
2023-04-30T07:39:38.455Z,8.20
2023-04-30T07:42:43.166Z,7.80
2023-04-30T07:45:45.330Z,9.83
2023-04-30T07:48:47.334Z,9.70
2023-04-30T07:51:49.889Z,11.43
2023-04-30T07:54:51.771Z,7.57
2023-04-30T07:57:53.949Z,7.57
2023-04-30T08:00:55.979Z,7.30
2023-04-30T08:03:58.084Z,6.33
2023-04-30T08:07:00.001Z,6.77
2023-04-30T08:10:01.906Z,7.17
2023-04-30T08:13:04.832Z,6.40
2023-04-30T08:16:06.822Z,9.50
2023-04-30T08:19:08.860Z,7.63
2023-04-30T08:22:11.078Z,6.57
2023-04-30T08:25:13.172Z,11.60
2023-04-30T08:28:15.142Z,7.17
2023-04-30T08:31:18.361Z,7.87
2023-04-30T08:34:21.632Z,8.13
2023-04-30T08:37:28.145Z,7.10
2023-04-30T08:40:49.387Z,9.20
2023-04-30T08:43:57.305Z,8.43
2023-04-30T08:47:00.202Z,9.23
2023-04-30T08:50:02.218Z,9.30
2023-04-30T08:53:05.572Z,9.87
2023-04-30T08:56:11.298Z,10.77
2023-04-30T08:59:14.824Z,9.43
2023-04-30T09:02:17.601Z,9.53
2023-04-30T09:05:19.548Z,7.93
2023-04-30T09:08:50.998Z,16.77
2023-04-30T09:11:53.064Z,6.47
2023-04-30T09:15:00.231Z,7.00
2023-04-30T09:18:16.345Z,7.07
2023-04-30T09:21:32.093Z,7.03
2023-04-30T09:24:47.480Z,7.70
2023-04-30T09:27:49.542Z,8.33
2023-04-30T09:30:52.012Z,6.93
2023-04-30T09:33:55.247Z,6.70
2023-04-30T09:36:57.918Z,7.20
2023-04-30T09:40:01.747Z,7.87
2023-04-30T09:43:04.448Z,6.43
2023-04-30T09:46:07.693Z,7.20
2023-04-30T09:49:11.998Z,6.50
2023-04-30T09:52:16.545Z,5.47
2023-04-30T09:55:18.907Z,6.30
2023-04-30T09:58:20.858Z,8.27
2023-04-30T10:01:29.910Z,4.90
2023-04-30T10:04:38.189Z,5.43
2023-04-30T10:07:40.910Z,5.50
2023-04-30T10:10:44.068Z,6.00
2023-04-30T10:14:04.317Z,5.93
2023-04-30T10:17:13.566Z,5.33
2023-04-30T10:20:15.808Z,6.17
2023-04-30T10:23:17.696Z,4.33
2023-04-30T10:26:19.801Z,3.80
2023-04-30T10:29:21.692Z,3.77
2023-04-30T10:32:25.479Z,4.47
2023-04-30T10:35:29.486Z,4.03
2023-04-30T10:38:32.792Z,5.00
2023-04-30T10:41:34.632Z,3.20
2023-04-30T10:44:39.654Z,3.07
2023-04-30T10:47:47.705Z,3.03
2023-04-30T10:50:52.124Z,5.00
2023-04-30T10:53:54.978Z,4.77
2023-04-30T10:57:30.138Z,2.43
2023-04-30T11:00:32.127Z,3.50
2023-04-30T11:03:35.622Z,2.40
2023-04-30T11:06:56.441Z,2.97
2023-04-30T11:09:58.651Z,2.43
2023-04-30T11:13:05.178Z,2.70
2023-04-30T11:16:07.258Z,3.07
2023-04-30T11:19:14.532Z,3.17
2023-04-30T11:22:17.940Z,2.23
2023-04-30T11:25:20.589Z,4.77
2023-04-30T11:28:26.293Z,3.10
2023-04-30T11:31:35.147Z,2.87
2023-04-30T11:34:38.156Z,3.53
2023-04-30T11:37:44.002Z,2.43
2023-04-30T11:40:49.315Z,3.50
2023-04-30T11:43:51.510Z,4.00
2023-04-30T11:46:53.823Z,4.13
2023-04-30T11:49:57.673Z,3.13
2023-04-30T11:53:03.494Z,2.97
2023-04-30T11:56:07.383Z,3.00
2023-04-30T11:59:12.774Z,3.17
2023-04-30T12:02:16.325Z,2.60
2023-04-30T12:05:21.747Z,3.75
2023-04-30T12:08:24.777Z,4.07
2023-04-30T12:11:28.423Z,3.97
2023-04-30T12:14:34.080Z,3.53
2023-04-30T12:17:36.550Z,2.80
2023-04-30T12:20:38.767Z,2.33
2023-04-30T12:23:40.914Z,2.90
2023-04-30T12:26:43.232Z,3.07
2023-04-30T12:29:47.166Z,3.23
2023-04-30T12:32:53.969Z,3.87
2023-04-30T12:35:58.867Z,2.77
2023-04-30T12:39:10.277Z,2.17
2023-04-30T12:42:12.326Z,3.13
2023-04-30T12:45:53.187Z,2.42
2023-04-30T12:48:55.699Z,2.97
2023-04-30T12:52:02.296Z,3.25
2023-04-30T12:55:23.080Z,2.85
2023-04-30T12:58:32.473Z,2.85
2023-04-30T13:01:45.390Z,4.00
2023-04-30T13:04:47.161Z,2.45
2023-04-30T13:07:56.189Z,5.35
2023-04-30T13:10:58.171Z,2.33
2023-04-30T13:14:00.681Z,3.35
2023-04-30T13:17:05.975Z,2.72
2023-04-30T13:20:08.742Z,3.03
2023-04-30T13:23:12.254Z,2.97
2023-04-30T13:26:14.266Z,2.03
2023-04-30T13:29:16.118Z,4.57
2023-04-30T13:32:19.059Z,4.63
2023-04-30T13:35:21.096Z,3.88
2023-04-30T13:38:23.044Z,2.22
2023-04-30T13:41:26.244Z,3.50
2023-04-30T13:44:28.617Z,2.53
2023-04-30T13:47:30.557Z,4.03
2023-04-30T13:50:32.956Z,5.03
2023-04-30T13:53:36.842Z,2.30
2023-04-30T13:56:38.726Z,3.88
2023-04-30T13:59:40.720Z,2.70
2023-04-30T14:02:42.676Z,2.67
2023-04-30T14:05:44.682Z,2.75
2023-04-30T14:08:46.993Z,4.67
2023-04-30T14:11:49.705Z,2.60
2023-04-30T14:14:51.680Z,2.25
2023-04-30T14:17:54.240Z,2.30
2023-04-30T14:20:56.270Z,3.72
2023-04-30T14:23:58.117Z,2.30
2023-04-30T14:27:01.289Z,3.22
2023-04-30T14:30:04.329Z,2.38
2023-04-30T14:33:06.605Z,2.78
2023-04-30T14:36:08.570Z,2.42
2023-04-30T14:39:10.498Z,2.47
2023-04-30T14:42:12.954Z,2.35
2023-04-30T14:45:15.721Z,2.50
2023-04-30T14:48:17.689Z,4.05
2023-04-30T14:51:19.576Z,1.88
2023-04-30T14:54:21.699Z,1.60
2023-04-30T14:57:24.137Z,2.42
2023-04-30T15:00:27.075Z,2.50
2023-04-30T15:03:29.746Z,5.18
2023-04-30T15:06:32.241Z,2.40
2023-04-30T15:09:34.726Z,1.80
2023-04-30T15:12:36.770Z,1.70
2023-04-30T15:15:39.041Z,2.60
2023-04-30T15:18:42.115Z,1.75
2023-04-30T15:21:44.438Z,2.00
2023-04-30T15:24:47.231Z,1.92
2023-04-30T15:27:49.578Z,1.75
2023-04-30T15:30:53.126Z,1.90
2023-04-30T15:33:54.923Z,1.67
2023-04-30T15:36:59.946Z,2.95
2023-04-30T15:40:01.773Z,1.95
2023-04-30T15:43:06.060Z,1.80
2023-04-30T15:46:07.952Z,2.13
2023-04-30T15:49:09.877Z,4.05
2023-04-30T15:52:12.068Z,2.30
2023-04-30T15:55:13.928Z,2.20
2023-04-30T15:58:16.518Z,2.65
2023-04-30T16:01:18.847Z,2.88
2023-04-30T16:04:21.494Z,1.88
2023-04-30T16:07:24.541Z,4.55
2023-04-30T16:10:26.727Z,2.42
2023-04-30T16:13:28.788Z,3.53
2023-04-30T16:16:31.077Z,2.47
2023-04-30T16:19:33.489Z,3.40
2023-04-30T16:22:35.552Z,3.05
2023-04-30T16:25:37.548Z,2.65
2023-04-30T16:28:39.475Z,2.28
2023-04-30T16:31:42.487Z,3.28
2023-04-30T16:34:45.094Z,4.60
2023-04-30T16:37:47.016Z,2.78
2023-04-30T16:40:50.467Z,4.10
2023-04-30T16:43:52.378Z,3.22
2023-04-30T16:46:57.172Z,2.63
2023-04-30T16:49:59.315Z,3.40
2023-04-30T16:53:01.530Z,4.68
2023-04-30T16:56:03.674Z,3.67
2023-04-30T16:59:05.895Z,4.75
2023-04-30T17:02:08.521Z,2.67
2023-04-30T17:05:12.119Z,5.57
2023-04-30T17:08:13.971Z,2.53
2023-04-30T17:11:19.393Z,3.50
2023-04-30T17:14:22.312Z,3.83
2023-04-30T17:17:24.298Z,3.83
2023-04-30T17:20:26.170Z,3.73
2023-04-30T17:23:28.686Z,3.83
2023-04-30T17:26:31.856Z,2.93
2023-04-30T17:29:34.066Z,3.47
2023-04-30T17:32:35.971Z,4.77
2023-04-30T17:35:37.931Z,4.03
2023-04-30T17:38:39.854Z,3.63
2023-04-30T17:41:42.804Z,3.13
2023-04-30T17:44:44.844Z,3.20
2023-04-30T17:47:47.180Z,4.40
2023-04-30T17:50:49.996Z,4.30
2023-04-30T17:53:52.727Z,4.60
2023-04-30T17:56:55.010Z,6.97
2023-04-30T17:59:57.319Z,4.27
2023-04-30T18:02:59.408Z,3.97
2023-04-30T18:06:02.815Z,7.43
2023-04-30T18:09:05.304Z,5.77
2023-04-30T18:12:07.433Z,4.10
2023-04-30T18:15:09.560Z,4.07
2023-04-30T18:18:12.268Z,4.53
2023-04-30T18:21:15.596Z,4.83
2023-04-30T18:24:19.404Z,5.67
2023-04-30T18:27:27.299Z,4.37
2023-04-30T18:30:29.846Z,4.43
2023-04-30T18:33:31.824Z,3.90
2023-04-30T18:36:34.337Z,6.37
2023-04-30T18:39:36.329Z,4.90
2023-04-30T18:42:38.888Z,4.93
2023-04-30T18:45:41.211Z,5.33
2023-04-30T18:48:43.077Z,6.77
2023-04-30T18:51:45.033Z,5.13
2023-04-30T18:54:47.316Z,5.50
2023-04-30T18:57:51.261Z,5.63
2023-04-30T19:00:57.950Z,5.90
2023-04-30T19:04:00.240Z,4.53
2023-04-30T19:07:02.925Z,4.63
2023-04-30T19:10:06.732Z,5.87
2023-04-30T19:13:08.792Z,7.07
2023-04-30T19:16:10.690Z,4.87
2023-04-30T19:19:13.320Z,4.40
2023-04-30T19:22:15.395Z,10.70
2023-04-30T19:25:18.222Z,4.60
2023-04-30T19:28:20.061Z,5.80
2023-04-30T19:31:23.040Z,7.00
2023-04-30T19:34:27.334Z,4.53
2023-04-30T19:37:29.464Z,7.53
2023-04-30T19:40:31.687Z,5.00
2023-04-30T19:43:33.612Z,6.43
2023-04-30T19:46:35.650Z,6.00
2023-04-30T19:49:37.778Z,4.50
2023-04-30T19:52:39.905Z,4.80
2023-04-30T19:55:42.288Z,4.90
2023-04-30T19:58:46.236Z,6.20
2023-04-30T20:01:49.564Z,5.67
2023-04-30T20:04:51.511Z,4.67
2023-04-30T20:07:53.972Z,5.40
2023-04-30T20:11:01.347Z,6.57
2023-04-30T20:14:06.254Z,6.23
2023-04-30T20:17:10.707Z,4.63
2023-04-30T20:20:32.055Z,4.60
2023-04-30T20:23:51.864Z,5.33
2023-04-30T20:26:57.511Z,5.40
2023-04-30T20:30:06.139Z,7.43
2023-04-30T20:33:16.115Z,7.33
2023-04-30T20:36:18.624Z,5.83
2023-04-30T20:39:22.459Z,4.47
2023-04-30T20:42:24.997Z,5.07
2023-04-30T20:45:27.100Z,4.40
2023-04-30T20:48:33.165Z,5.60
2023-04-30T20:51:36.989Z,5.77
2023-04-30T20:54:39.447Z,5.10
2023-04-30T20:57:41.583Z,4.97
2023-04-30T21:00:43.657Z,4.77
2023-04-30T21:03:46.147Z,4.33
2023-04-30T21:06:48.309Z,4.83
2023-04-30T21:09:51.097Z,4.20
2023-04-30T21:12:54.317Z,4.60
2023-04-30T21:15:56.780Z,4.90
2023-04-30T21:18:58.837Z,5.53
2023-04-30T21:22:01.228Z,5.43
2023-04-30T21:25:03.353Z,4.87
2023-04-30T21:28:05.267Z,6.10
2023-04-30T21:31:08.330Z,4.63
2023-04-30T21:34:10.499Z,4.03
2023-04-30T21:37:13.372Z,5.07
2023-04-30T21:40:16.141Z,4.77
2023-04-30T21:43:18.252Z,4.73
2023-04-30T21:46:21.974Z,3.67
2023-04-30T21:49:24.160Z,3.83
2023-04-30T21:52:26.247Z,5.07
2023-04-30T21:55:28.324Z,5.00
2023-04-30T21:58:30.285Z,5.77
2023-04-30T22:06:10.164Z,5.53
2023-04-30T22:09:12.822Z,4.00
2023-04-30T22:12:15.963Z,4.13
2023-04-30T22:15:17.861Z,3.90
2023-04-30T22:18:21.600Z,4.10
2023-04-30T22:21:23.595Z,4.17
2023-04-30T22:24:25.703Z,4.53
2023-04-30T22:27:27.768Z,8.40
2023-04-30T22:30:29.778Z,4.60
2023-04-30T22:33:36.413Z,7.67
2023-04-30T22:36:40.836Z,4.00
2023-04-30T22:39:42.875Z,6.33
2023-04-30T22:42:46.225Z,5.27
2023-04-30T22:45:48.192Z,4.67
2023-04-30T22:48:51.100Z,7.00
2023-04-30T22:51:53.245Z,7.50
2023-04-30T22:54:56.103Z,5.97
2023-04-30T22:58:00.275Z,4.03
2023-04-30T23:01:02.208Z,5.13
2023-04-30T23:04:05.402Z,5.10
2023-04-30T23:07:07.376Z,6.20
2023-04-30T23:10:09.957Z,5.10
2023-04-30T23:13:12.052Z,4.53
2023-04-30T23:16:13.942Z,4.60
2023-04-30T23:19:16.355Z,3.93
2023-04-30T23:22:18.372Z,3.93
2023-04-30T23:25:20.670Z,5.27
2023-04-30T23:28:26.622Z,4.77
2023-04-30T23:31:28.893Z,5.07
2023-04-30T23:34:30.949Z,4.70
2023-04-30T23:37:33.075Z,6.57
2023-04-30T23:40:35.159Z,4.83
2023-04-30T23:43:37.062Z,4.53
2023-04-30T23:46:39.250Z,4.30
2023-04-30T23:49:41.707Z,8.10
2023-04-30T23:52:44.674Z,5.33
2023-04-30T23:55:46.903Z,4.53
2023-04-30T23:58:49.001Z,5.50
